sensor_id;sensor_type;location;lat;lon;timestamp;P1;durP1;ratioP1;P2;durP2;ratioP2
33491;SDS011;20010;51.488;7.232;2023-08-30T00:01:01;15.07;;;13.55;;
33491;SDS011;20010;51.488;7.232;2023-08-30T00:03:27;12.27;;;11.35;;
33491;SDS011;20010;51.488;7.232;2023-08-30T00:05:54;14.40;;;13.27;;
33491;SDS011;20010;51.488;7.232;2023-08-30T00:08:21;12.27;;;11.38;;
33491;SDS011;20010;51.488;7.232;2023-08-30T00:10:48;13.05;;;11.80;;
33491;SDS011;20010;51.488;7.232;2023-08-30T00:13:15;13.07;;;12.10;;
33491;SDS011;20010;51.488;7.232;2023-08-30T00:15:42;14.75;;;13.45;;
33491;SDS011;20010;51.488;7.232;2023-08-30T00:18:09;14.88;;;13.63;;
33491;SDS011;20010;51.488;7.232;2023-08-30T00:20:36;15.80;;;14.30;;
33491;SDS011;20010;51.488;7.232;2023-08-30T00:23:03;14.40;;;13.18;;
33491;SDS011;20010;51.488;7.232;2023-08-30T00:25:31;15.63;;;14.43;;
33491;SDS011;20010;51.488;7.232;2023-08-30T00:27:57;13.77;;;12.77;;
33491;SDS011;20010;51.488;7.232;2023-08-30T00:30:24;15.55;;;14.20;;
33491;SDS011;20010;51.488;7.232;2023-08-30T00:32:51;14.90;;;13.80;;
33491;SDS011;20010;51.488;7.232;2023-08-30T00:35:17;14.32;;;13.05;;
33491;SDS011;20010;51.488;7.232;2023-08-30T00:37:44;15.27;;;14.07;;
33491;SDS011;20010;51.488;7.232;2023-08-30T00:40:11;17.90;;;16.38;;
33491;SDS011;20010;51.488;7.232;2023-08-30T00:42:38;16.17;;;14.88;;
33491;SDS011;20010;51.488;7.232;2023-08-30T00:45:07;16.38;;;15.00;;
33491;SDS011;20010;51.488;7.232;2023-08-30T00:47:34;17.42;;;15.93;;
33491;SDS011;20010;51.488;7.232;2023-08-30T00:50:01;15.90;;;14.40;;
33491;SDS011;20010;51.488;7.232;2023-08-30T00:52:28;16.25;;;14.95;;
33491;SDS011;20010;51.488;7.232;2023-08-30T00:54:55;17.30;;;15.68;;
33491;SDS011;20010;51.488;7.232;2023-08-30T00:57:21;15.48;;;14.27;;
33491;SDS011;20010;51.488;7.232;2023-08-30T00:59:48;15.52;;;14.23;;
33491;SDS011;20010;51.488;7.232;2023-08-30T01:02:17;16.63;;;15.13;;
33491;SDS011;20010;51.488;7.232;2023-08-30T01:04:44;18.30;;;16.75;;
33491;SDS011;20010;51.488;7.232;2023-08-30T01:07:11;17.38;;;15.73;;
33491;SDS011;20010;51.488;7.232;2023-08-30T01:09:38;18.38;;;16.77;;
33491;SDS011;20010;51.488;7.232;2023-08-30T01:12:13;19.75;;;17.95;;
33491;SDS011;20010;51.488;7.232;2023-08-30T01:14:45;18.35;;;16.75;;
33491;SDS011;20010;51.488;7.232;2023-08-30T01:17:16;19.00;;;17.35;;
33491;SDS011;20010;51.488;7.232;2023-08-30T01:27:38;19.77;;;17.85;;
33491;SDS011;20010;51.488;7.232;2023-08-30T01:30:05;19.55;;;17.77;;
33491;SDS011;20010;51.488;7.232;2023-08-30T01:32:33;17.95;;;16.45;;
33491;SDS011;20010;51.488;7.232;2023-08-30T01:35:01;17.48;;;15.93;;
33491;SDS011;20010;51.488;7.232;2023-08-30T01:37:28;18.63;;;16.80;;
33491;SDS011;20010;51.488;7.232;2023-08-30T01:39:56;18.63;;;16.75;;
33491;SDS011;20010;51.488;7.232;2023-08-30T01:42:24;18.98;;;17.23;;
33491;SDS011;20010;51.488;7.232;2023-08-30T01:44:53;18.77;;;17.08;;
33491;SDS011;20010;51.488;7.232;2023-08-30T01:47:24;18.23;;;16.58;;
33491;SDS011;20010;51.488;7.232;2023-08-30T01:49:52;17.38;;;15.77;;
33491;SDS011;20010;51.488;7.232;2023-08-30T01:52:20;17.80;;;16.30;;
33491;SDS011;20010;51.488;7.232;2023-08-30T01:54:46;18.02;;;16.45;;
33491;SDS011;20010;51.488;7.232;2023-08-30T01:57:14;19.85;;;18.13;;
33491;SDS011;20010;51.488;7.232;2023-08-30T01:59:40;17.52;;;16.02;;
33491;SDS011;20010;51.488;7.232;2023-08-30T02:02:07;20.20;;;18.35;;
33491;SDS011;20010;51.488;7.232;2023-08-30T02:04:34;19.83;;;17.90;;
33491;SDS011;20010;51.488;7.232;2023-08-30T02:07:02;18.80;;;17.08;;
33491;SDS011;20010;51.488;7.232;2023-08-30T02:12:00;19.73;;;18.05;;
33491;SDS011;20010;51.488;7.232;2023-08-30T02:14:30;20.52;;;18.75;;
33491;SDS011;20010;51.488;7.232;2023-08-30T02:16:58;20.40;;;18.60;;
33491;SDS011;20010;51.488;7.232;2023-08-30T02:19:25;19.75;;;17.95;;
33491;SDS011;20010;51.488;7.232;2023-08-30T02:21:51;21.38;;;19.23;;
33491;SDS011;20010;51.488;7.232;2023-08-30T02:24:18;21.20;;;19.23;;
33491;SDS011;20010;51.488;7.232;2023-08-30T02:26:45;26.08;;;22.42;;
33491;SDS011;20010;51.488;7.232;2023-08-30T02:29:12;21.80;;;19.70;;
33491;SDS011;20010;51.488;7.232;2023-08-30T02:31:39;21.73;;;19.58;;
33491;SDS011;20010;51.488;7.232;2023-08-30T02:34:06;20.67;;;18.88;;
33491;SDS011;20010;51.488;7.232;2023-08-30T02:36:33;21.58;;;19.65;;
33491;SDS011;20010;51.488;7.232;2023-08-30T02:38:59;22.70;;;20.60;;
33491;SDS011;20010;51.488;7.232;2023-08-30T02:41:26;22.45;;;20.15;;
33491;SDS011;20010;51.488;7.232;2023-08-30T02:43:53;24.25;;;21.67;;
33491;SDS011;20010;51.488;7.232;2023-08-30T02:46:19;23.92;;;21.70;;
33491;SDS011;20010;51.488;7.232;2023-08-30T02:48:46;21.00;;;18.92;;
33491;SDS011;20010;51.488;7.232;2023-08-30T02:51:13;24.48;;;21.98;;
33491;SDS011;20010;51.488;7.232;2023-08-30T02:53:39;23.25;;;20.65;;
33491;SDS011;20010;51.488;7.232;2023-08-30T02:56:06;24.55;;;22.20;;
33491;SDS011;20010;51.488;7.232;2023-08-30T02:58:33;23.52;;;21.13;;
33491;SDS011;20010;51.488;7.232;2023-08-30T03:01:00;23.85;;;21.63;;
33491;SDS011;20010;51.488;7.232;2023-08-30T03:03:29;27.55;;;23.70;;
33491;SDS011;20010;51.488;7.232;2023-08-30T03:05:55;23.50;;;21.30;;
33491;SDS011;20010;51.488;7.232;2023-08-30T03:08:22;25.20;;;22.90;;
33491;SDS011;20010;51.488;7.232;2023-08-30T03:10:49;25.10;;;22.63;;
33491;SDS011;20010;51.488;7.232;2023-08-30T03:13:16;24.92;;;22.67;;
33491;SDS011;20010;51.488;7.232;2023-08-30T03:15:42;26.25;;;23.73;;
33491;SDS011;20010;51.488;7.232;2023-08-30T03:18:09;26.02;;;23.67;;
33491;SDS011;20010;51.488;7.232;2023-08-30T03:20:36;25.50;;;23.15;;
33491;SDS011;20010;51.488;7.232;2023-08-30T03:23:03;27.23;;;24.38;;
33491;SDS011;20010;51.488;7.232;2023-08-30T03:25:30;27.52;;;24.75;;
33491;SDS011;20010;51.488;7.232;2023-08-30T03:27:57;26.48;;;23.98;;
33491;SDS011;20010;51.488;7.232;2023-08-30T03:30:24;25.58;;;23.05;;
33491;SDS011;20010;51.488;7.232;2023-08-30T03:32:50;26.33;;;23.92;;
33491;SDS011;20010;51.488;7.232;2023-08-30T03:35:17;24.60;;;22.17;;
33491;SDS011;20010;51.488;7.232;2023-08-30T03:37:46;30.17;;;27.38;;
33491;SDS011;20010;51.488;7.232;2023-08-30T03:40:13;27.17;;;24.67;;
33491;SDS011;20010;51.488;7.232;2023-08-30T03:42:40;28.27;;;25.65;;
33491;SDS011;20010;51.488;7.232;2023-08-30T03:45:07;31.63;;;28.17;;
33491;SDS011;20010;51.488;7.232;2023-08-30T03:47:34;28.63;;;25.73;;
33491;SDS011;20010;51.488;7.232;2023-08-30T03:50:01;30.83;;;27.80;;
33491;SDS011;20010;51.488;7.232;2023-08-30T03:52:28;28.73;;;26.00;;
33491;SDS011;20010;51.488;7.232;2023-08-30T03:54:55;30.75;;;27.95;;
33491;SDS011;20010;51.488;7.232;2023-08-30T03:57:21;40.90;;;29.10;;
33491;SDS011;20010;51.488;7.232;2023-08-30T03:59:48;34.70;;;30.98;;
33491;SDS011;20010;51.488;7.232;2023-08-30T04:02:15;30.73;;;27.70;;
33491;SDS011;20010;51.488;7.232;2023-08-30T04:04:41;30.25;;;27.23;;
33491;SDS011;20010;51.488;7.232;2023-08-30T04:07:08;28.15;;;25.50;;
33491;SDS011;20010;51.488;7.232;2023-08-30T04:09:35;30.52;;;27.48;;
33491;SDS011;20010;51.488;7.232;2023-08-30T04:12:01;31.70;;;28.50;;
33491;SDS011;20010;51.488;7.232;2023-08-30T04:14:31;31.60;;;28.50;;
33491;SDS011;20010;51.488;7.232;2023-08-30T04:16:57;30.65;;;27.75;;
33491;SDS011;20010;51.488;7.232;2023-08-30T04:19:24;30.02;;;27.00;;
33491;SDS011;20010;51.488;7.232;2023-08-30T04:21:51;31.58;;;28.55;;
33491;SDS011;20010;51.488;7.232;2023-08-30T04:24:17;30.90;;;27.98;;
33491;SDS011;20010;51.488;7.232;2023-08-30T04:26:44;34.40;;;30.85;;
33491;SDS011;20010;51.488;7.232;2023-08-30T04:29:11;32.10;;;29.02;;
33491;SDS011;20010;51.488;7.232;2023-08-30T04:31:37;31.92;;;28.83;;
33491;SDS011;20010;51.488;7.232;2023-08-30T04:34:04;32.40;;;27.98;;
33491;SDS011;20010;51.488;7.232;2023-08-30T04:36:31;32.20;;;28.95;;
33491;SDS011;20010;51.488;7.232;2023-08-30T04:38:57;32.85;;;29.65;;
33491;SDS011;20010;51.488;7.232;2023-08-30T04:41:28;32.47;;;29.40;;
33491;SDS011;20010;51.488;7.232;2023-08-30T04:43:55;33.72;;;30.17;;
33491;SDS011;20010;51.488;7.232;2023-08-30T04:46:22;35.60;;;32.10;;
33491;SDS011;20010;51.488;7.232;2023-08-30T04:48:48;35.13;;;31.52;;
33491;SDS011;20010;51.488;7.232;2023-08-30T04:51:15;37.30;;;33.55;;
33491;SDS011;20010;51.488;7.232;2023-08-30T04:53:42;40.85;;;35.55;;
33491;SDS011;20010;51.488;7.232;2023-08-30T04:56:10;39.97;;;35.67;;
33491;SDS011;20010;51.488;7.232;2023-08-30T04:58:41;38.15;;;34.28;;
33491;SDS011;20010;51.488;7.232;2023-08-30T05:01:08;38.10;;;34.05;;
33491;SDS011;20010;51.488;7.232;2023-08-30T05:03:39;36.35;;;32.47;;
33491;SDS011;20010;51.488;7.232;2023-08-30T05:06:06;35.92;;;32.40;;
33491;SDS011;20010;51.488;7.232;2023-08-30T05:08:33;37.38;;;32.97;;
33491;SDS011;20010;51.488;7.232;2023-08-30T05:11:00;40.65;;;36.25;;
33491;SDS011;20010;51.488;7.232;2023-08-30T05:13:28;38.85;;;34.78;;
33491;SDS011;20010;51.488;7.232;2023-08-30T05:15:54;40.83;;;36.58;;
33491;SDS011;20010;51.488;7.232;2023-08-30T05:18:21;39.72;;;34.67;;
33491;SDS011;20010;51.488;7.232;2023-08-30T05:20:48;40.42;;;36.08;;
33491;SDS011;20010;51.488;7.232;2023-08-30T05:23:14;40.55;;;36.47;;
33491;SDS011;20010;51.488;7.232;2023-08-30T05:25:41;41.72;;;37.28;;
33491;SDS011;20010;51.488;7.232;2023-08-30T05:28:08;43.00;;;38.33;;
33491;SDS011;20010;51.488;7.232;2023-08-30T05:30:34;39.35;;;35.35;;
33491;SDS011;20010;51.488;7.232;2023-08-30T05:33:01;42.13;;;37.58;;
33491;SDS011;20010;51.488;7.232;2023-08-30T05:35:28;41.83;;;37.58;;
33491;SDS011;20010;51.488;7.232;2023-08-30T05:37:55;40.90;;;35.83;;
33491;SDS011;20010;51.488;7.232;2023-08-30T05:40:22;39.83;;;35.72;;
33491;SDS011;20010;51.488;7.232;2023-08-30T05:42:49;40.97;;;36.53;;
33491;SDS011;20010;51.488;7.232;2023-08-30T05:45:16;38.10;;;34.20;;
33491;SDS011;20010;51.488;7.232;2023-08-30T05:47:43;35.83;;;32.40;;
33491;SDS011;20010;51.488;7.232;2023-08-30T05:50:10;36.17;;;32.38;;
33491;SDS011;20010;51.488;7.232;2023-08-30T05:52:36;36.78;;;32.97;;
33491;SDS011;20010;51.488;7.232;2023-08-30T05:55:08;34.83;;;31.05;;
33491;SDS011;20010;51.488;7.232;2023-08-30T05:57:35;34.33;;;30.83;;
33491;SDS011;20010;51.488;7.232;2023-08-30T06:00:02;34.75;;;31.25;;
33491;SDS011;20010;51.488;7.232;2023-08-30T06:02:31;33.92;;;30.42;;
33491;SDS011;20010;51.488;7.232;2023-08-30T06:04:57;37.15;;;33.25;;
33491;SDS011;20010;51.488;7.232;2023-08-30T06:07:24;37.88;;;34.13;;
33491;SDS011;20010;51.488;7.232;2023-08-30T06:09:50;36.42;;;32.92;;
33491;SDS011;20010;51.488;7.232;2023-08-30T06:12:17;33.10;;;29.70;;
33491;SDS011;20010;51.488;7.232;2023-08-30T06:14:44;31.05;;;28.05;;
33491;SDS011;20010;51.488;7.232;2023-08-30T06:17:16;32.15;;;28.95;;
33491;SDS011;20010;51.488;7.232;2023-08-30T06:19:44;32.78;;;29.38;;
33491;SDS011;20010;51.488;7.232;2023-08-30T06:22:11;35.95;;;32.47;;
33491;SDS011;20010;51.488;7.232;2023-08-30T06:24:38;36.45;;;32.65;;
33491;SDS011;20010;51.488;7.232;2023-08-30T06:27:05;33.90;;;29.70;;
33491;SDS011;20010;51.488;7.232;2023-08-30T06:29:31;35.63;;;32.08;;
33491;SDS011;20010;51.488;7.232;2023-08-30T06:31:58;36.90;;;32.85;;
33491;SDS011;20010;51.488;7.232;2023-08-30T06:34:25;38.55;;;34.60;;
33491;SDS011;20010;51.488;7.232;2023-08-30T06:36:51;37.45;;;33.70;;
33491;SDS011;20010;51.488;7.232;2023-08-30T06:39:18;37.92;;;34.10;;
33491;SDS011;20010;51.488;7.232;2023-08-30T06:41:45;37.30;;;33.50;;
33491;SDS011;20010;51.488;7.232;2023-08-30T06:44:11;39.40;;;35.33;;
33491;SDS011;20010;51.488;7.232;2023-08-30T06:46:38;39.80;;;35.67;;
33491;SDS011;20010;51.488;7.232;2023-08-30T06:49:06;39.63;;;35.65;;
33491;SDS011;20010;51.488;7.232;2023-08-30T06:51:35;42.10;;;37.88;;
33491;SDS011;20010;51.488;7.232;2023-08-30T06:54:02;41.88;;;37.13;;
33491;SDS011;20010;51.488;7.232;2023-08-30T06:56:28;40.63;;;36.25;;
33491;SDS011;20010;51.488;7.232;2023-08-30T06:58:55;39.25;;;35.25;;
33491;SDS011;20010;51.488;7.232;2023-08-30T07:01:22;40.17;;;35.88;;
33491;SDS011;20010;51.488;7.232;2023-08-30T07:03:48;37.05;;;33.05;;
33491;SDS011;20010;51.488;7.232;2023-08-30T07:06:15;34.75;;;31.15;;
33491;SDS011;20010;51.488;7.232;2023-08-30T07:08:43;32.88;;;29.67;;
33491;SDS011;20010;51.488;7.232;2023-08-30T07:11:10;33.40;;;30.20;;
33491;SDS011;20010;51.488;7.232;2023-08-30T07:13:57;32.45;;;28.52;;
33491;SDS011;20010;51.488;7.232;2023-08-30T07:16:23;31.65;;;28.55;;
33491;SDS011;20010;51.488;7.232;2023-08-30T07:18:50;30.05;;;27.23;;
33491;SDS011;20010;51.488;7.232;2023-08-30T07:21:17;28.92;;;26.35;;
33491;SDS011;20010;51.488;7.232;2023-08-30T07:23:43;28.23;;;25.75;;
33491;SDS011;20010;51.488;7.232;2023-08-30T07:26:10;30.02;;;26.98;;
33491;SDS011;20010;51.488;7.232;2023-08-30T07:28:36;29.27;;;26.17;;
33491;SDS011;20010;51.488;7.232;2023-08-30T07:31:03;27.15;;;24.65;;
33491;SDS011;20010;51.488;7.232;2023-08-30T07:33:30;23.58;;;21.40;;
33491;SDS011;20010;51.488;7.232;2023-08-30T07:35:57;24.60;;;22.30;;
33491;SDS011;20010;51.488;7.232;2023-08-30T07:38:24;23.20;;;21.20;;
33491;SDS011;20010;51.488;7.232;2023-08-30T07:40:50;23.40;;;21.20;;
33491;SDS011;20010;51.488;7.232;2023-08-30T07:43:17;22.10;;;20.00;;
33491;SDS011;20010;51.488;7.232;2023-08-30T07:45:44;21.73;;;19.48;;
33491;SDS011;20010;51.488;7.232;2023-08-30T07:48:10;20.73;;;19.02;;
33491;SDS011;20010;51.488;7.232;2023-08-30T07:50:37;20.50;;;18.35;;
33491;SDS011;20010;51.488;7.232;2023-08-30T07:53:04;20.67;;;18.65;;
33491;SDS011;20010;51.488;7.232;2023-08-30T07:55:30;17.70;;;16.10;;
33491;SDS011;20010;51.488;7.232;2023-08-30T07:57:57;17.35;;;15.68;;
33491;SDS011;20010;51.488;7.232;2023-08-30T08:00:24;17.45;;;15.88;;
33491;SDS011;20010;51.488;7.232;2023-08-30T08:02:50;16.70;;;15.13;;
33491;SDS011;20010;51.488;7.232;2023-08-30T08:05:17;15.77;;;14.48;;
33491;SDS011;20010;51.488;7.232;2023-08-30T08:07:43;16.42;;;15.00;;
33491;SDS011;20010;51.488;7.232;2023-08-30T08:10:10;15.20;;;13.82;;
33491;SDS011;20010;51.488;7.232;2023-08-30T08:12:37;15.80;;;14.50;;
33491;SDS011;20010;51.488;7.232;2023-08-30T08:15:03;15.07;;;13.88;;
33491;SDS011;20010;51.488;7.232;2023-08-30T08:17:30;14.60;;;13.40;;
33491;SDS011;20010;51.488;7.232;2023-08-30T08:19:57;15.45;;;13.98;;
33491;SDS011;20010;51.488;7.232;2023-08-30T08:22:24;14.20;;;12.70;;
33491;SDS011;20010;51.488;7.232;2023-08-30T08:24:50;13.93;;;12.23;;
33491;SDS011;20010;51.488;7.232;2023-08-30T08:27:17;12.63;;;11.63;;
33491;SDS011;20010;51.488;7.232;2023-08-30T08:29:44;12.23;;;11.30;;
33491;SDS011;20010;51.488;7.232;2023-08-30T08:32:10;11.82;;;10.90;;
33491;SDS011;20010;51.488;7.232;2023-08-30T08:34:37;11.35;;;10.45;;
33491;SDS011;20010;51.488;7.232;2023-08-30T08:37:04;11.20;;;10.20;;
33491;SDS011;20010;51.488;7.232;2023-08-30T08:39:30;11.00;;;9.90;;
33491;SDS011;20010;51.488;7.232;2023-08-30T08:41:57;9.50;;;8.77;;
33491;SDS011;20010;51.488;7.232;2023-08-30T08:44:26;10.07;;;9.20;;
33491;SDS011;20010;51.488;7.232;2023-08-30T08:46:53;9.77;;;8.57;;
33491;SDS011;20010;51.488;7.232;2023-08-30T08:49:20;8.90;;;8.25;;
33491;SDS011;20010;51.488;7.232;2023-08-30T08:51:46;8.80;;;8.20;;
33491;SDS011;20010;51.488;7.232;2023-08-30T08:54:13;8.88;;;8.07;;
33491;SDS011;20010;51.488;7.232;2023-08-30T08:56:40;8.30;;;7.60;;
33491;SDS011;20010;51.488;7.232;2023-08-30T08:59:07;8.32;;;7.72;;
33491;SDS011;20010;51.488;7.232;2023-08-30T09:01:35;8.68;;;7.97;;
33491;SDS011;20010;51.488;7.232;2023-08-30T09:04:06;10.45;;;8.15;;
33491;SDS011;20010;51.488;7.232;2023-08-30T09:06:35;8.98;;;8.15;;
33491;SDS011;20010;51.488;7.232;2023-08-30T09:09:02;10.00;;;9.20;;
33491;SDS011;20010;51.488;7.232;2023-08-30T09:11:32;9.25;;;8.50;;
33491;SDS011;20010;51.488;7.232;2023-08-30T09:14:02;8.77;;;8.00;;
33491;SDS011;20010;51.488;7.232;2023-08-30T09:16:28;8.43;;;7.72;;
33491;SDS011;20010;51.488;7.232;2023-08-30T09:19:01;9.23;;;8.48;;
33491;SDS011;20010;51.488;7.232;2023-08-30T09:24:03;8.85;;;8.18;;
33491;SDS011;20010;51.488;7.232;2023-08-30T09:26:32;9.02;;;8.43;;
33491;SDS011;20010;51.488;7.232;2023-08-30T09:29:04;7.95;;;7.35;;
33491;SDS011;20010;51.488;7.232;2023-08-30T09:31:34;12.73;;;8.88;;
33491;SDS011;20010;51.488;7.232;2023-08-30T09:34:07;9.05;;;8.35;;
33491;SDS011;20010;51.488;7.232;2023-08-30T09:36:34;10.10;;;9.13;;
33491;SDS011;20010;51.488;7.232;2023-08-30T09:39:07;9.20;;;8.25;;
33491;SDS011;20010;51.488;7.232;2023-08-30T09:41:36;9.35;;;8.48;;
33491;SDS011;20010;51.488;7.232;2023-08-30T09:44:13;9.38;;;8.68;;
33491;SDS011;20010;51.488;7.232;2023-08-30T09:46:44;10.30;;;9.45;;
33491;SDS011;20010;51.488;7.232;2023-08-30T09:49:24;9.48;;;8.68;;
33491;SDS011;20010;51.488;7.232;2023-08-30T09:51:52;9.65;;;8.82;;
33491;SDS011;20010;51.488;7.232;2023-08-30T09:54:20;9.15;;;8.23;;
33491;SDS011;20010;51.488;7.232;2023-08-30T09:57:04;10.60;;;8.18;;
33491;SDS011;20010;51.488;7.232;2023-08-30T09:59:31;9.10;;;8.35;;
33491;SDS011;20010;51.488;7.232;2023-08-30T10:01:59;9.43;;;8.70;;
33491;SDS011;20010;51.488;7.232;2023-08-30T10:04:29;9.52;;;8.68;;
33491;SDS011;20010;51.488;7.232;2023-08-30T10:06:56;9.13;;;8.32;;
33491;SDS011;20010;51.488;7.232;2023-08-30T10:09:24;9.75;;;8.95;;
33491;SDS011;20010;51.488;7.232;2023-08-30T10:11:51;9.13;;;8.43;;
33491;SDS011;20010;51.488;7.232;2023-08-30T10:14:18;9.00;;;8.40;;
33491;SDS011;20010;51.488;7.232;2023-08-30T10:16:48;10.82;;;8.77;;
33491;SDS011;20010;51.488;7.232;2023-08-30T10:21:43;9.68;;;8.70;;
33491;SDS011;20010;51.488;7.232;2023-08-30T10:24:11;9.82;;;9.13;;
33491;SDS011;20010;51.488;7.232;2023-08-30T10:26:58;10.65;;;9.85;;
33491;SDS011;20010;51.488;7.232;2023-08-30T10:29:25;11.57;;;10.25;;
33491;SDS011;20010;51.488;7.232;2023-08-30T10:31:52;11.43;;;10.30;;
33491;SDS011;20010;51.488;7.232;2023-08-30T10:34:19;11.57;;;10.75;;
33491;SDS011;20010;51.488;7.232;2023-08-30T10:36:58;11.30;;;10.60;;
33491;SDS011;20010;51.488;7.232;2023-08-30T10:39:33;12.00;;;11.20;;
33491;SDS011;20010;51.488;7.232;2023-08-30T10:42:06;12.25;;;11.25;;
33491;SDS011;20010;51.488;7.232;2023-08-30T10:44:46;12.40;;;11.50;;
33491;SDS011;20010;51.488;7.232;2023-08-30T10:47:37;12.50;;;11.50;;
33491;SDS011;20010;51.488;7.232;2023-08-30T10:50:06;12.95;;;11.85;;
33491;SDS011;20010;51.488;7.232;2023-08-30T10:52:34;13.10;;;11.98;;
33491;SDS011;20010;51.488;7.232;2023-08-30T10:55:21;14.13;;;12.35;;
33491;SDS011;20010;51.488;7.232;2023-08-30T10:57:57;13.80;;;12.68;;
33491;SDS011;20010;51.488;7.232;2023-08-30T11:00:30;14.15;;;13.02;;
33491;SDS011;20010;51.488;7.232;2023-08-30T11:02:57;15.07;;;13.77;;
33491;SDS011;20010;51.488;7.232;2023-08-30T11:05:25;15.57;;;13.77;;
33491;SDS011;20010;51.488;7.232;2023-08-30T11:07:52;15.25;;;13.85;;
33491;SDS011;20010;51.488;7.232;2023-08-30T11:10:20;15.50;;;14.20;;
33491;SDS011;20010;51.488;7.232;2023-08-30T11:12:47;16.25;;;14.85;;
33491;SDS011;20010;51.488;7.232;2023-08-30T11:15:16;16.45;;;15.05;;
33491;SDS011;20010;51.488;7.232;2023-08-30T11:17:44;16.13;;;14.93;;
33491;SDS011;20010;51.488;7.232;2023-08-30T11:20:12;16.98;;;15.48;;
33491;SDS011;20010;51.488;7.232;2023-08-30T11:25:11;15.88;;;14.60;;
33491;SDS011;20010;51.488;7.232;2023-08-30T11:27:39;16.58;;;14.95;;
33491;SDS011;20010;51.488;7.232;2023-08-30T11:30:07;17.02;;;15.55;;
33491;SDS011;20010;51.488;7.232;2023-08-30T11:32:35;19.45;;;17.55;;
33491;SDS011;20010;51.488;7.232;2023-08-30T11:35:03;18.02;;;16.30;;
33491;SDS011;20010;51.488;7.232;2023-08-30T11:37:30;18.10;;;16.35;;
33491;SDS011;20010;51.488;7.232;2023-08-30T11:39:57;18.52;;;16.65;;
33491;SDS011;20010;51.488;7.232;2023-08-30T11:42:25;20.05;;;18.35;;
33491;SDS011;20010;51.488;7.232;2023-08-30T11:44:52;19.42;;;17.42;;
33491;SDS011;20010;51.488;7.232;2023-08-30T11:47:19;20.88;;;18.83;;
33491;SDS011;20010;51.488;7.232;2023-08-30T11:49:47;19.88;;;17.85;;
33491;SDS011;20010;51.488;7.232;2023-08-30T11:52:15;19.33;;;17.63;;
33491;SDS011;20010;51.488;7.232;2023-08-30T11:54:43;19.05;;;17.38;;
33491;SDS011;20010;51.488;7.232;2023-08-30T11:57:10;19.48;;;17.58;;
33491;SDS011;20010;51.488;7.232;2023-08-30T11:59:37;20.23;;;18.33;;
33491;SDS011;20010;51.488;7.232;2023-08-30T12:02:04;19.05;;;17.38;;
33491;SDS011;20010;51.488;7.232;2023-08-30T12:04:31;16.15;;;14.85;;
33491;SDS011;20010;51.488;7.232;2023-08-30T12:06:57;14.07;;;12.98;;
33491;SDS011;20010;51.488;7.232;2023-08-30T12:09:32;14.25;;;11.80;;
33491;SDS011;20010;51.488;7.232;2023-08-30T12:12:11;10.73;;;9.93;;
33491;SDS011;20010;51.488;7.232;2023-08-30T12:14:38;9.98;;;9.27;;
33491;SDS011;20010;51.488;7.232;2023-08-30T12:17:04;10.23;;;8.52;;
33491;SDS011;20010;51.488;7.232;2023-08-30T12:19:31;8.95;;;8.25;;
33491;SDS011;20010;51.488;7.232;2023-08-30T12:22:05;9.32;;;8.55;;
33491;SDS011;20010;51.488;7.232;2023-08-30T12:24:44;8.63;;;8.02;;
33491;SDS011;20010;51.488;7.232;2023-08-30T12:27:12;8.30;;;7.70;;
33491;SDS011;20010;51.488;7.232;2023-08-30T12:29:39;8.68;;;7.97;;
33491;SDS011;20010;51.488;7.232;2023-08-30T12:32:06;8.43;;;7.82;;
33491;SDS011;20010;51.488;7.232;2023-08-30T12:34:34;8.25;;;7.75;;
33491;SDS011;20010;51.488;7.232;2023-08-30T12:37:01;7.97;;;7.38;;
33491;SDS011;20010;51.488;7.232;2023-08-30T12:39:30;7.93;;;7.43;;
33491;SDS011;20010;51.488;7.232;2023-08-30T12:41:57;8.02;;;7.50;;
33491;SDS011;20010;51.488;7.232;2023-08-30T12:44:24;9.48;;;8.60;;
33491;SDS011;20010;51.488;7.232;2023-08-30T12:46:50;8.50;;;7.90;;
33491;SDS011;20010;51.488;7.232;2023-08-30T12:49:17;8.50;;;7.90;;
33491;SDS011;20010;51.488;7.232;2023-08-30T12:51:43;8.50;;;7.90;;
33491;SDS011;20010;51.488;7.232;2023-08-30T12:54:10;8.75;;;8.15;;
33491;SDS011;20010;51.488;7.232;2023-08-30T12:56:36;8.27;;;7.75;;
33491;SDS011;20010;51.488;7.232;2023-08-30T12:59:03;8.50;;;8.00;;
33491;SDS011;20010;51.488;7.232;2023-08-30T13:01:29;9.35;;;8.65;;
33491;SDS011;20010;51.488;7.232;2023-08-30T13:03:56;8.90;;;8.30;;
33491;SDS011;20010;51.488;7.232;2023-08-30T13:06:23;8.10;;;7.60;;
33491;SDS011;20010;51.488;7.232;2023-08-30T13:08:49;7.65;;;7.15;;
33491;SDS011;20010;51.488;7.232;2023-08-30T13:11:16;8.52;;;7.88;;
33491;SDS011;20010;51.488;7.232;2023-08-30T13:13:44;9.10;;;8.27;;
33491;SDS011;20010;51.488;7.232;2023-08-30T13:16:11;9.25;;;8.55;;
33491;SDS011;20010;51.488;7.232;2023-08-30T13:18:37;8.30;;;7.65;;
33491;SDS011;20010;51.488;7.232;2023-08-30T13:21:04;8.10;;;7.57;;
33491;SDS011;20010;51.488;7.232;2023-08-30T13:23:30;8.40;;;7.80;;
33491;SDS011;20010;51.488;7.232;2023-08-30T13:25:57;8.00;;;7.50;;
33491;SDS011;20010;51.488;7.232;2023-08-30T13:28:24;8.80;;;8.20;;
33491;SDS011;20010;51.488;7.232;2023-08-30T13:30:50;8.70;;;8.00;;
33491;SDS011;20010;51.488;7.232;2023-08-30T13:33:18;9.50;;;8.80;;
33491;SDS011;20010;51.488;7.232;2023-08-30T13:35:48;9.30;;;8.52;;
33491;SDS011;20010;51.488;7.232;2023-08-30T13:38:17;9.50;;;8.70;;
33491;SDS011;20010;51.488;7.232;2023-08-30T13:40:44;9.30;;;8.68;;
33491;SDS011;20010;51.488;7.232;2023-08-30T13:43:11;9.70;;;8.93;;
33491;SDS011;20010;51.488;7.232;2023-08-30T13:45:38;10.23;;;8.98;;
33491;SDS011;20010;51.488;7.232;2023-08-30T13:48:05;9.25;;;8.55;;
33491;SDS011;20010;51.488;7.232;2023-08-30T13:50:31;9.23;;;8.63;;
33491;SDS011;20010;51.488;7.232;2023-08-30T13:52:58;9.25;;;8.55;;
33491;SDS011;20010;51.488;7.232;2023-08-30T13:55:24;9.80;;;9.10;;
33491;SDS011;20010;51.488;7.232;2023-08-30T13:57:51;9.93;;;9.15;;
33491;SDS011;20010;51.488;7.232;2023-08-30T14:00:18;9.50;;;8.82;;
33491;SDS011;20010;51.488;7.232;2023-08-30T14:02:45;10.13;;;9.38;;
33491;SDS011;20010;51.488;7.232;2023-08-30T14:05:11;9.13;;;8.43;;
33491;SDS011;20010;51.488;7.232;2023-08-30T14:07:38;9.13;;;8.43;;
33491;SDS011;20010;51.488;7.232;2023-08-30T14:10:04;8.88;;;8.27;;
33491;SDS011;20010;51.488;7.232;2023-08-30T14:12:32;9.45;;;8.75;;
33491;SDS011;20010;51.488;7.232;2023-08-30T14:14:59;10.00;;;9.30;;
33491;SDS011;20010;51.488;7.232;2023-08-30T14:17:26;10.60;;;9.80;;
33491;SDS011;20010;51.488;7.232;2023-08-30T14:19:52;10.13;;;9.43;;
33491;SDS011;20010;51.488;7.232;2023-08-30T14:22:19;9.50;;;8.80;;
33491;SDS011;20010;51.488;7.232;2023-08-30T14:24:46;8.57;;;7.97;;
33491;SDS011;20010;51.488;7.232;2023-08-30T14:27:28;8.23;;;7.72;;
33491;SDS011;20010;51.488;7.232;2023-08-30T14:29:55;8.38;;;7.55;;
33491;SDS011;20010;51.488;7.232;2023-08-30T14:32:21;9.30;;;8.60;;
33491;SDS011;20010;51.488;7.232;2023-08-30T14:34:48;9.40;;;8.70;;
33491;SDS011;20010;51.488;7.232;2023-08-30T14:37:14;8.73;;;8.00;;
33491;SDS011;20010;51.488;7.232;2023-08-30T14:39:41;8.93;;;8.13;;
33491;SDS011;20010;51.488;7.232;2023-08-30T14:42:11;8.57;;;7.88;;
33491;SDS011;20010;51.488;7.232;2023-08-30T14:44:37;8.57;;;7.82;;
33491;SDS011;20010;51.488;7.232;2023-08-30T14:47:07;8.43;;;7.88;;
33491;SDS011;20010;51.488;7.232;2023-08-30T14:49:33;8.63;;;8.07;;